createdAt,value
2022-08-18T00:01:16.087Z,-25.5
2022-08-18T00:03:26.672Z,-25.3
2022-08-18T00:05:17.721Z,-25.4
2022-08-18T00:07:19.263Z,-25.6
2022-08-18T00:09:20.373Z,-25.4
2022-08-18T00:11:21.705Z,-25.5
2022-08-18T00:13:23.501Z,-25.6
2022-08-18T00:17:25.643Z,-25.6
2022-08-18T00:19:45.828Z,-25.6
2022-08-18T00:23:29.241Z,-25.5
2022-08-18T00:25:30.761Z,-25.5
2022-08-18T00:27:32.101Z,-25.7
2022-08-18T00:29:33.304Z,-25.5
2022-08-18T00:33:35.954Z,-25.5
2022-08-18T00:35:37.266Z,-25.5
2022-08-18T00:37:38.790Z,-25.4
2022-08-18T00:39:40.624Z,-25.6
2022-08-18T00:43:43.167Z,-25.4
2022-08-18T00:45:44.029Z,-25.7
2022-08-18T00:47:45.342Z,-25.7
2022-08-18T00:49:46.958Z,-25.7
2022-08-18T00:51:48.725Z,-25.6
2022-08-18T00:53:50.363Z,-25.6
2022-08-18T00:55:53.770Z,-25.5
2022-08-18T00:59:54.844Z,-25.7
2022-08-18T01:01:55.698Z,-25.7
2022-08-18T01:03:57.500Z,-25.6
2022-08-18T01:05:58.402Z,-25.5
2022-08-18T01:07:59.979Z,-25.7
2022-08-18T01:10:01.256Z,-25.8
2022-08-18T01:12:20.832Z,-25.5
2022-08-18T01:14:03.987Z,-25.6
2022-08-18T01:16:05.450Z,-25.5
2022-08-18T01:18:06.879Z,-25.7
2022-08-18T01:20:08.617Z,-25.5
2022-08-18T01:22:09.595Z,-25.9
2022-08-18T01:26:12.051Z,-25.7
2022-08-18T01:28:13.551Z,-25.6
2022-08-18T01:30:15.162Z,-25.6
2022-08-18T01:32:16.790Z,-25.5
2022-08-18T01:34:17.710Z,-25.5
2022-08-18T01:36:18.918Z,-25.6
2022-08-18T01:38:20.201Z,-25.7
2022-08-18T01:42:22.438Z,-25.8
2022-08-18T01:44:23.375Z,-25.5
2022-08-18T01:46:24.997Z,-25.7
2022-08-18T01:48:26.766Z,-25.6
2022-08-18T01:50:28.593Z,-25.5
2022-08-18T01:52:29.746Z,-25.5
2022-08-18T01:54:31.444Z,-25.7
2022-08-18T01:56:32.351Z,-25.8
2022-08-18T01:58:34.097Z,-25.6
2022-08-18T02:00:35.341Z,-25.4
2022-08-18T02:02:36.229Z,-25.8
2022-08-18T02:04:37.500Z,-25.6
2022-08-18T02:06:38.703Z,-25.7
2022-08-18T02:10:41.731Z,-25.6
2022-08-18T02:12:43.038Z,-25.6
2022-08-18T02:14:44.628Z,-25.3
2022-08-18T02:16:46.419Z,-25.6
2022-08-18T02:18:48.804Z,-25.7
2022-08-18T02:20:48.710Z,-25.8
2022-08-18T02:26:52.407Z,-25.6
2022-08-18T02:28:54.204Z,-25.7
2022-08-18T02:30:55.677Z,-25.6
2022-08-18T02:32:56.743Z,-25.9
2022-08-18T02:34:58.533Z,-25.5
2022-08-18T02:36:59.739Z,-25.9
2022-08-18T02:39:00.903Z,-25.7
2022-08-18T02:41:02.295Z,-25.7
2022-08-18T02:43:03.815Z,-25.4
2022-08-18T02:47:06.529Z,-25.8
2022-08-18T02:49:08.228Z,-25.6
2022-08-18T02:51:09.835Z,-25.5
2022-08-18T02:53:11.635Z,-25.5
2022-08-18T02:55:12.936Z,-25.9
2022-08-18T02:57:14.114Z,-25.6
2022-08-18T02:59:15.255Z,-25.8
2022-08-18T03:01:17.022Z,-25.8
2022-08-18T03:05:20.057Z,-25.8
2022-08-18T03:07:21.296Z,-25.8
2022-08-18T03:13:26.100Z,-25.7
2022-08-18T03:15:27.444Z,-25.8
2022-08-18T03:17:29.299Z,-25.7
2022-08-18T03:19:31.009Z,-25.8
2022-08-18T03:23:33.199Z,-25.8
2022-08-18T03:25:34.644Z,-25.6
2022-08-18T03:27:35.679Z,-25.8
2022-08-18T03:29:37.192Z,-25.5
2022-08-18T03:35:41.983Z,-25.6
2022-08-18T03:37:43.667Z,-25.6
2022-08-18T03:41:57.859Z,-25.9
2022-08-18T03:45:47.982Z,-25.8
2022-08-18T03:49:50.890Z,-25.8
2022-08-18T03:51:53.568Z,-25.6
2022-08-18T03:53:54.324Z,-25.6
2022-08-18T03:55:55.927Z,-25.6
2022-08-18T03:59:58.398Z,-25.3
2022-08-18T04:02:07.797Z,-26
2022-08-18T04:04:01.213Z,-25.6
2022-08-18T04:06:02.788Z,-25.5
2022-08-18T04:08:05.161Z,-25.6
2022-08-18T04:12:07.207Z,-25.8
2022-08-18T04:14:08.470Z,-25.7
2022-08-18T04:16:09.608Z,-26
2022-08-18T04:18:10.831Z,-25.9
2022-08-18T04:20:12.416Z,-25.8
2022-08-18T04:22:17.094Z,-25.9
2022-08-18T04:24:15.558Z,-25.8
2022-08-18T04:26:19.230Z,-25.9
2022-08-18T04:28:18.175Z,-25.5
2022-08-18T04:30:19.597Z,-25.8
2022-08-18T04:34:22.637Z,-25.9
2022-08-18T04:36:24.331Z,-25.7
2022-08-18T04:38:25.953Z,-25.8
2022-08-18T04:40:27.773Z,-25.8
2022-08-18T04:42:29.318Z,-25.9
2022-08-18T04:44:30.865Z,-25.8
2022-08-18T04:48:33.221Z,-25.9
2022-08-18T04:50:34.941Z,-25.6
2022-08-18T04:52:39.482Z,-25.6
2022-08-18T04:54:37.603Z,-25.6
2022-08-18T04:56:39.211Z,-25.6
2022-08-18T04:58:40.208Z,-25.6
2022-08-18T05:00:41.559Z,-25.7
2022-08-18T05:03:50.705Z,-25.7
2022-08-18T05:05:52.330Z,-25.8
2022-08-18T05:07:53.814Z,-25.6
2022-08-18T05:09:55.216Z,-25.9
2022-08-18T05:11:56.796Z,-25.7
2022-08-18T05:13:58.128Z,-26.1
2022-08-18T05:16:10.412Z,-26
2022-08-18T05:18:01.506Z,-25.7
2022-08-18T05:20:02.579Z,-26.1
2022-08-18T05:22:03.614Z,-25.9
2022-08-18T05:24:04.658Z,-26.1
2022-08-18T05:26:06.455Z,-26
2022-08-18T05:30:09.527Z,-25.9
2022-08-18T05:32:11.206Z,-26
2022-08-18T05:38:14.404Z,-26
2022-08-18T05:40:15.796Z,-26
2022-08-18T05:42:17.354Z,-25.9
2022-08-18T05:44:18.385Z,-26.1
2022-08-18T05:46:20.909Z,-24.5
2022-08-18T05:48:20.635Z,-21.4
2022-08-18T05:52:23.946Z,-17.6
2022-08-18T05:54:24.904Z,-15.7
2022-08-18T05:56:26.096Z,-11.3
2022-08-18T05:58:33.011Z,-10.3
2022-08-18T06:00:28.426Z,-11.9
2022-08-18T06:02:29.389Z,-11.4
2022-08-18T06:04:30.916Z,-6.6
2022-08-18T06:06:32.219Z,0
2022-08-18T06:08:33.400Z,28.8
2022-08-18T06:10:34.616Z,48.2
2022-08-18T06:14:36.970Z,79.4
2022-08-18T06:16:38.763Z,78.4
2022-08-18T06:18:39.931Z,4.3
2022-08-18T06:20:40.854Z,6.8
2022-08-18T06:24:43.887Z,9.1
2022-08-18T06:26:45.595Z,5.4
2022-08-18T06:28:47.256Z,6.5
2022-08-18T06:30:48.542Z,25
2022-08-18T06:34:50.674Z,18.9
2022-08-18T06:36:51.705Z,30.2
2022-08-18T06:38:52.769Z,39.3
2022-08-18T06:40:54.459Z,22.9
2022-08-18T06:42:55.483Z,1.4
2022-08-18T06:44:57.178Z,-16.6
2022-08-18T06:46:58.431Z,-22.9
2022-08-18T06:48:59.814Z,-25.8
2022-08-18T06:51:01.267Z,-25.9
2022-08-18T06:53:03.028Z,-22.3
2022-08-18T06:55:03.969Z,-20.9
2022-08-18T06:57:05.269Z,-22.5
2022-08-18T06:59:07.063Z,-25.6
2022-08-18T07:01:08.116Z,-25.5
2022-08-18T07:03:08.988Z,-25.7
2022-08-18T07:07:11.107Z,-25.5
2022-08-18T07:09:12.316Z,-25.6
2022-08-18T07:11:13.867Z,-26
2022-08-18T07:13:15.340Z,-25.5
2022-08-18T07:19:19.428Z,-20.2
2022-08-18T07:21:20.712Z,-15.7
2022-08-18T07:23:21.829Z,-5.9
2022-08-18T07:25:23.483Z,3.6
2022-08-18T07:27:25.138Z,11.9
2022-08-18T07:29:26.723Z,15.6
2022-08-18T07:31:27.843Z,13.6
2022-08-18T07:33:29.477Z,9.89
2022-08-18T07:35:31.235Z,8.1
2022-08-18T07:37:33.002Z,2.3
2022-08-18T07:39:34.485Z,0.6
2022-08-18T07:41:35.926Z,-11.3
2022-08-18T07:43:37.210Z,-13.5
2022-08-18T07:45:38.871Z,-13.3
2022-08-18T07:47:39.834Z,-12
2022-08-18T07:49:54.590Z,-8.89
2022-08-18T07:51:42.739Z,-2.3
2022-08-18T07:55:45.526Z,3.7
2022-08-18T07:57:46.868Z,1.6
2022-08-18T07:59:48.143Z,1.8
2022-08-18T08:01:49.390Z,5.4
2022-08-18T08:03:50.362Z,3.8
2022-08-18T08:05:52.007Z,5.7
2022-08-18T08:07:53.471Z,8.7
2022-08-18T08:09:54.314Z,15.9
2022-08-18T08:11:55.789Z,24.4
2022-08-18T08:17:59.549Z,37.3
2022-08-18T08:20:02.142Z,38.4
2022-08-18T08:22:02.649Z,30.8
2022-08-18T08:24:03.913Z,26.7
2022-08-18T08:26:04.973Z,29.4
2022-08-18T08:28:06.708Z,34
2022-08-18T08:32:09.533Z,38.09
2022-08-18T08:34:10.873Z,68.6
2022-08-18T08:36:12.358Z,66.9
2022-08-18T08:38:36.974Z,65.8
2022-08-18T08:44:18.234Z,61.4
2022-08-18T08:46:19.893Z,60.4
2022-08-18T08:48:20.890Z,58.6
2022-08-18T08:50:22.225Z,57.7
2022-08-18T08:52:24.626Z,56.1
2022-08-18T08:58:29.297Z,52.2
2022-08-18T09:00:30.861Z,51.7
2022-08-18T09:02:47.052Z,-1.2
2022-08-18T09:04:32.552Z,-4
2022-08-18T09:06:33.419Z,-4.8
2022-08-18T09:08:34.721Z,-5.8
2022-08-18T09:10:36.473Z,-7.1
2022-08-18T09:12:37.583Z,-10.2
2022-08-18T09:14:38.654Z,-15.3
2022-08-18T09:16:40.142Z,-19.6
2022-08-18T09:18:41.923Z,-21.1
2022-08-18T09:20:48.592Z,-21.1
2022-08-18T09:22:44.874Z,-17.7
2022-08-18T09:24:45.810Z,-19.29
2022-08-18T09:26:47.146Z,-19.6
2022-08-18T09:30:51.271Z,-14.4
2022-08-18T09:32:51.614Z,-10.9
2022-08-18T09:34:52.920Z,-11.2
2022-08-18T09:36:54.088Z,-13.9
2022-08-18T09:42:57.786Z,-10
2022-08-18T09:44:58.634Z,3.2
2022-08-18T09:47:00.374Z,47.7
2022-08-18T09:49:01.553Z,44.9
2022-08-18T09:51:12.001Z,41.9
2022-08-18T09:53:04.731Z,39.2
2022-08-18T09:55:05.284Z,38.4
2022-08-18T09:57:06.435Z,34.8
2022-08-18T09:59:09.760Z,32.5
2022-08-18T10:01:09.840Z,31.1
2022-08-18T10:03:10.980Z,28.4
2022-08-18T10:05:12.415Z,27.7
2022-08-18T10:09:18.201Z,23.9
2022-08-18T10:11:16.848Z,23.7
2022-08-18T10:13:18.219Z,21.7
2022-08-18T10:15:27.089Z,20.8
2022-08-18T10:21:24.525Z,17.6
2022-08-18T10:23:25.666Z,17.5
2022-08-18T10:25:27.023Z,16
2022-08-18T10:27:28.356Z,14.9
2022-08-18T10:29:29.690Z,12.7
2022-08-18T10:31:30.945Z,12.4
2022-08-18T10:33:32.255Z,10.5
2022-08-18T10:35:33.873Z,10.1
2022-08-18T10:37:34.760Z,11.2
2022-08-18T10:45:40.834Z,-25.9
2022-08-18T10:47:42.225Z,-25.6
2022-08-18T10:49:46.743Z,-25.3
2022-08-18T10:51:58.171Z,-25.6
2022-08-18T10:53:47.101Z,-25.6
2022-08-18T10:57:49.049Z,-25.5
2022-08-18T10:59:54.387Z,-25.6
2022-08-18T11:01:51.967Z,-25.3
2022-08-18T11:03:55.636Z,-25.4
2022-08-18T11:05:54.635Z,-25.6
2022-08-18T11:07:56.649Z,-25.6
2022-08-18T11:10:05.198Z,-25.6
2022-08-18T11:11:59.309Z,-25.4
2022-08-18T11:14:00.596Z,-25.4
2022-08-18T11:16:01.591Z,-25.3
2022-08-18T11:18:03.069Z,-25.4
2022-08-18T11:20:04.514Z,-25.4
2022-08-18T11:24:07.681Z,-25.3
2022-08-18T11:26:09.443Z,-25.4
2022-08-18T11:28:11.187Z,-25.5
2022-08-18T11:30:13.489Z,-25.7
2022-08-18T11:34:18.332Z,-25.7
2022-08-18T11:36:16.664Z,-25.6
2022-08-18T11:40:43.108Z,-25.8
2022-08-18T11:42:22.024Z,-25.7
2022-08-18T11:44:21.758Z,-25.5
2022-08-18T11:46:24.993Z,-25.5
2022-08-18T11:47:06.361Z,-25.1
2022-08-18T11:51:09.086Z,-25.3
2022-08-18T11:53:10.633Z,-25.7
2022-08-18T11:55:14.567Z,-25.6
2022-08-18T11:59:14.373Z,-25.4
2022-08-18T12:01:15.807Z,-25.7
2022-08-18T12:03:17.564Z,-25.5
2022-08-18T12:05:19.183Z,-25.6
2022-08-18T12:07:20.909Z,-25.6
2022-08-18T12:09:45.454Z,-25.5
2022-08-18T12:13:24.816Z,-25.2
2022-08-18T12:17:26.766Z,-25.5
2022-08-18T12:21:29.366Z,-25.7
2022-08-18T12:23:34.753Z,-25.5
2022-08-18T12:25:32.034Z,-25.5
2022-08-18T12:27:33.748Z,-25.7
2022-08-18T12:33:47.720Z,-25.4
2022-08-18T12:35:38.477Z,-25.5
2022-08-18T12:37:59.353Z,-25.5
2022-08-18T12:39:41.081Z,-25.6
2022-08-18T12:41:42.024Z,-25.3
2022-08-18T12:43:43.232Z,-25.6
2022-08-18T12:45:44.131Z,-25.5
2022-08-18T12:47:45.821Z,-25.6
2022-08-18T12:49:46.953Z,-25.5
2022-08-18T12:51:50.212Z,-25.4
2022-08-18T12:53:58.053Z,-25.6
2022-08-18T12:55:50.063Z,-25.3
2022-08-18T12:57:51.876Z,-25.5
2022-08-18T12:59:52.677Z,-25.6
2022-08-18T13:01:58.279Z,-25.5
2022-08-18T13:04:01.346Z,-25.3
2022-08-18T13:05:57.458Z,-25.5
2022-08-18T13:07:58.236Z,-25.6
2022-08-18T13:09:59.595Z,-25.6
2022-08-18T13:14:03.089Z,-25.4
2022-08-18T13:16:03.979Z,-25.1
2022-08-18T13:18:05.478Z,-25.5
2022-08-18T13:20:07.573Z,-25.4
2022-08-18T13:22:08.107Z,-25.6
2022-08-18T13:24:09.324Z,-25.7
2022-08-18T13:26:10.351Z,-25.2
2022-08-18T13:32:13.721Z,-25.4
2022-08-18T13:34:15.300Z,-25.8
2022-08-18T13:36:16.459Z,-25.7
2022-08-18T13:38:21.752Z,-25.4
2022-08-18T13:40:19.132Z,-25.7
2022-08-18T13:42:21.847Z,-25.6
2022-08-18T13:46:24.154Z,-25.5
2022-08-18T13:48:23.758Z,-25.6
2022-08-18T13:50:29.851Z,-25.3
2022-08-18T13:52:33.713Z,-25.5
2022-08-18T13:54:31.108Z,-25.4
2022-08-18T13:58:30.896Z,-25.6
2022-08-18T14:02:33.371Z,-25.7
2022-08-18T14:04:34.907Z,-25.7
2022-08-18T14:06:36.076Z,-25.7
2022-08-18T14:08:37.028Z,-25.5
2022-08-18T14:14:40.502Z,-25.8
2022-08-18T14:16:42.275Z,-25.5
2022-08-18T14:18:43.223Z,-25.4
2022-08-18T14:20:48.077Z,-25.3
2022-08-18T14:22:45.905Z,-25.6
2022-08-18T14:24:48.564Z,-25.6
2022-08-18T14:26:49.818Z,-25.7
2022-08-18T14:28:50.713Z,-25.5
2022-08-18T14:30:54.750Z,-25.3
2022-08-18T14:32:53.707Z,-25.5
2022-08-18T14:34:58.570Z,-25.6
2022-08-18T14:36:56.509Z,-25.7
2022-08-18T14:41:00.111Z,-25.4
2022-08-18T14:43:00.028Z,-25.5
2022-08-18T14:45:03.857Z,-25.5
2022-08-18T14:51:05.424Z,-25.3
2022-08-18T14:53:06.507Z,-25.6
2022-08-18T14:55:08.210Z,-25.7
2022-08-18T14:57:09.553Z,-25.5
2022-08-18T14:59:10.979Z,-25.4
2022-08-18T15:01:12.588Z,-25.4
2022-08-18T15:03:14.053Z,-25.5
2022-08-18T15:05:19.367Z,-25.5
2022-08-18T15:07:17.522Z,-25.5
2022-08-18T15:13:21.528Z,-25.5
2022-08-18T15:15:22.887Z,-25.4
2022-08-18T15:17:23.800Z,-25.6
2022-08-18T15:19:37.877Z,-25.4
2022-08-18T15:21:35.177Z,-25.6
2022-08-18T15:23:28.569Z,-25.5
2022-08-18T15:27:42.891Z,-25.6
2022-08-18T15:29:32.477Z,-25.1
2022-08-18T15:31:50.299Z,-25.3
2022-08-18T15:33:35.955Z,-25.6
2022-08-18T15:39:39.081Z,-25.8
2022-08-18T15:41:44.406Z,-25.5
2022-08-18T15:43:45.792Z,-25.5
2022-08-18T15:45:43.108Z,-25.4
2022-08-18T15:47:43.638Z,-25.6
2022-08-18T15:49:44.805Z,-25.5
2022-08-18T15:53:46.787Z,-25.5
2022-08-18T15:55:50.175Z,-25.5
2022-08-18T15:57:49.764Z,-25.3
2022-08-18T15:59:50.721Z,-25.6
2022-08-18T16:01:52.069Z,-25.8
2022-08-18T16:03:53.434Z,-19
2022-08-18T16:05:54.249Z,-18.6
2022-08-18T16:07:56.238Z,-12.1
2022-08-18T16:09:57.562Z,-9.89
2022-08-18T16:12:00.442Z,-10.9
2022-08-18T16:14:00.046Z,-17.29
2022-08-18T16:16:01.314Z,-7.6
2022-08-18T16:18:03.081Z,-8.2
2022-08-18T16:20:04.687Z,-16.2
2022-08-18T16:22:06.202Z,-14.5
2022-08-18T16:24:07.114Z,-11
2022-08-18T16:26:08.263Z,-4.9
2022-08-18T16:28:09.421Z,-1.4
2022-08-18T16:30:11.164Z,-4.6
2022-08-18T16:32:16.067Z,-6.9
2022-08-18T16:34:13.416Z,-8.2
2022-08-18T16:36:14.763Z,-8.7
2022-08-18T16:38:15.700Z,-11.2
2022-08-18T16:40:16.831Z,-13.5
2022-08-18T16:42:17.729Z,-12.1
2022-08-18T16:44:18.739Z,-14.7
2022-08-18T16:46:19.869Z,-14.7
2022-08-18T16:50:22.382Z,-17.6
2022-08-18T16:52:23.450Z,-18.7
2022-08-18T16:54:24.266Z,-19.4
2022-08-18T16:56:25.226Z,-20.2
2022-08-18T16:58:26.605Z,-22
2022-08-18T17:02:28.721Z,-24.9
2022-08-18T17:04:30.349Z,-25.6
2022-08-18T17:06:31.428Z,-25.4
2022-08-18T17:08:32.964Z,-25.5
2022-08-18T17:10:33.983Z,-25.6
2022-08-18T17:12:35.637Z,-25.5
2022-08-18T17:14:37.031Z,-25.7
2022-08-18T17:16:38.511Z,-25.3
2022-08-18T17:20:41.693Z,-25.5
2022-08-18T17:24:47.071Z,-25.4
2022-08-18T17:26:45.242Z,-25.6
2022-08-18T17:28:50.371Z,-25.7
2022-08-18T17:32:48.798Z,-25.5
2022-08-18T17:34:50.115Z,-25.4
2022-08-18T17:36:52.717Z,-25.6
2022-08-18T17:38:52.285Z,-25.5
2022-08-18T17:40:54.054Z,-25.4
2022-08-18T17:42:55.338Z,-25.5
2022-08-18T17:44:56.330Z,-25.5
2022-08-18T17:46:57.866Z,-25.5
2022-08-18T17:48:59.399Z,-25.4
2022-08-18T17:51:00.678Z,-25.3
2022-08-18T17:53:02.356Z,-25.5
2022-08-18T17:55:03.982Z,-25.8
2022-08-18T17:57:04.856Z,-25.8
2022-08-18T17:59:06.488Z,-25.6
2022-08-18T18:01:08.157Z,-25.7
2022-08-18T18:03:12.763Z,-25.5
2022-08-18T18:05:10.589Z,-25.4
2022-08-18T18:07:11.830Z,-25.7
2022-08-18T18:09:13.501Z,-25.7
2022-08-18T18:11:14.434Z,-25.2
2022-08-18T18:13:15.857Z,-25.4
2022-08-18T18:15:16.898Z,-25.7
2022-08-18T18:17:17.864Z,-25.6
2022-08-18T18:19:18.720Z,-25.5
2022-08-18T18:21:19.996Z,-25.6
2022-08-18T18:23:20.833Z,-25.7
2022-08-18T18:25:21.682Z,-25.8
2022-08-18T18:27:23.112Z,-25.5
2022-08-18T18:32:09.523Z,-25.2
2022-08-18T18:34:23.145Z,-25.8
2022-08-18T18:38:14.153Z,-25.5
2022-08-18T18:40:15.278Z,-25.5
2022-08-18T18:42:16.194Z,-25.4
2022-08-18T18:44:17.399Z,-25.7
2022-08-18T18:46:19.252Z,-25.7
2022-08-18T18:48:43.614Z,-25.5
2022-08-18T18:50:20.935Z,-25.8
2022-08-18T18:52:22.828Z,-25.6
2022-08-18T18:54:22.898Z,-25.3
2022-08-18T18:56:24.321Z,-25.6
2022-08-18T18:58:27.291Z,-25.8
2022-08-18T19:00:26.504Z,-25.8
2022-08-18T19:02:33.389Z,-25.4
2022-08-18T19:04:29.899Z,-25.7
2022-08-18T19:06:31.600Z,-25.6
2022-08-18T19:12:35.689Z,-25.6
2022-08-18T19:14:37.466Z,-25.6
2022-08-18T19:16:38.815Z,-25.8
2022-08-18T19:18:39.823Z,-25.6
2022-08-18T19:20:41.021Z,-25.6
2022-08-18T19:22:42.079Z,-25.6
2022-08-18T19:24:43.315Z,-25.7
2022-08-18T19:26:44.716Z,-25.7
2022-08-18T19:29:08.957Z,-25.6
2022-08-18T19:30:47.037Z,-25.7
2022-08-18T19:32:48.277Z,-25.6
2022-08-18T19:34:51.254Z,-25.4
2022-08-18T19:36:50.913Z,-25.6
2022-08-18T19:38:52.621Z,-25.5
2022-08-18T19:40:53.614Z,-26.1
2022-08-18T19:42:54.639Z,-25.9
2022-08-18T19:45:15.202Z,-25.6
2022-08-18T19:48:59.054Z,-25.7
2022-08-18T19:51:00.623Z,-25.5
2022-08-18T19:53:01.536Z,-25.6
2022-08-18T19:55:02.961Z,-25.9
2022-08-18T19:57:04.474Z,-25.6
2022-08-18T19:59:15.907Z,-25.5
2022-08-18T20:01:09.595Z,-25.9
2022-08-18T20:03:09.498Z,-25.7
2022-08-18T20:05:10.492Z,-25.6
2022-08-18T20:11:14.380Z,-25.5
2022-08-18T20:13:15.304Z,-25.6
2022-08-18T20:15:16.461Z,-25.5
2022-08-18T20:19:19.163Z,-25.6
2022-08-18T20:21:20.192Z,-25.3
2022-08-18T20:25:23.674Z,-25.4
2022-08-18T20:27:24.563Z,-25.6
2022-08-18T20:29:25.448Z,-25.7
2022-08-18T20:31:26.957Z,-25.4
2022-08-18T20:33:28.283Z,-25.8
2022-08-18T20:35:29.410Z,-25.7
2022-08-18T20:37:30.382Z,-25.8
2022-08-18T20:41:33.551Z,-25.7
2022-08-18T20:43:34.810Z,-25.7
2022-08-18T20:45:35.568Z,-25.7
2022-08-18T20:47:37.010Z,-25.7
2022-08-18T20:49:38.637Z,-25.8
2022-08-18T20:55:42.470Z,-25.6
2022-08-18T20:57:43.955Z,-25.4
2022-08-18T20:59:45.577Z,-25.7
2022-08-18T21:01:46.758Z,-25.6
2022-08-18T21:03:48.278Z,-25.5
2022-08-18T21:07:51.415Z,-25.8
2022-08-18T21:09:52.557Z,-25.7
2022-08-18T21:11:53.551Z,-25.9
2022-08-18T21:13:55.339Z,-25.8
2022-08-18T21:15:56.642Z,-25.6
2022-08-18T21:17:57.881Z,-25.5
2022-08-18T21:19:59.147Z,-25.7
2022-08-18T21:22:00.836Z,-25.8
2022-08-18T21:24:02.084Z,-25.7
2022-08-18T21:26:02.995Z,-25.6
2022-08-18T21:28:04.251Z,-25.7
2022-08-18T21:30:05.115Z,-25.6
2022-08-18T21:32:05.997Z,-25.5
2022-08-18T21:34:07.318Z,-25.4
2022-08-18T21:36:09.119Z,-25.8
2022-08-18T21:38:10.049Z,-25.9
2022-08-18T21:40:11.350Z,-25.7
2022-08-18T21:42:12.655Z,-25.6
2022-08-18T21:44:14.540Z,-25.7
2022-08-18T21:46:15.384Z,-25.7
2022-08-18T21:52:19.221Z,-25.8
2022-08-18T21:54:21.023Z,-25.6
2022-08-18T21:56:22.406Z,-25.8
2022-08-18T21:58:32.536Z,-25.7
2022-08-18T22:00:25.607Z,-25.9
2022-08-18T22:02:27.082Z,-25.6
2022-08-18T22:04:28.400Z,-25.3
2022-08-18T22:06:30.211Z,-25.7
2022-08-18T22:08:31.751Z,-25.7
2022-08-18T22:10:33.161Z,-25.6
2022-08-18T22:12:34.804Z,-25.8
2022-08-18T22:18:38.297Z,-25.9
2022-08-18T22:20:39.343Z,-25.9
2022-08-18T22:22:40.313Z,-25.8
2022-08-18T22:24:41.930Z,-25.7
2022-08-18T22:26:43.159Z,-25.9
2022-08-18T22:28:44.506Z,-25.5
2022-08-18T22:30:45.435Z,-25.5
2022-08-18T22:32:46.371Z,-25.7
2022-08-18T22:34:47.867Z,-25.6
2022-08-18T22:36:48.825Z,-25.7
2022-08-18T22:38:50.628Z,-25.7
2022-08-18T22:40:51.539Z,-25.4
2022-08-18T22:42:53.261Z,-25.5
2022-08-18T22:44:54.794Z,-25.8
2022-08-18T22:46:56.474Z,-25.5
2022-08-18T22:48:57.526Z,-25.7
2022-08-18T22:50:58.477Z,-25.7
2022-08-18T22:53:00.062Z,-26.1
2022-08-18T22:55:02.664Z,-25.6
2022-08-18T22:57:02.835Z,-25.9
2022-08-18T22:59:13.894Z,-25.7
2022-08-18T23:01:06.089Z,-25.8
2022-08-18T23:03:07.519Z,-25.6
2022-08-18T23:05:08.768Z,-25.7
2022-08-18T23:07:09.808Z,-25.9
2022-08-18T23:09:11.123Z,-25.6
2022-08-18T23:11:12.756Z,-25.8
2022-08-18T23:13:14.474Z,-25.7
2022-08-18T23:17:16.710Z,-25.7
2022-08-18T23:19:17.956Z,-25.8
2022-08-18T23:21:33.549Z,-25.9
2022-08-18T23:23:20.178Z,-25.5
2022-08-18T23:25:21.038Z,-25.4
2022-08-18T23:27:22.559Z,-25.7
2022-08-18T23:29:23.699Z,-25.6
2022-08-18T23:31:24.896Z,-25.5
2022-08-18T23:33:26.405Z,-25.7
2022-08-18T23:35:27.802Z,-25.5
2022-08-18T23:37:29.600Z,-25.9
2022-08-18T23:39:31.246Z,-25.5
2022-08-18T23:41:32.666Z,-25.6
2022-08-18T23:43:34.019Z,-25.6
2022-08-18T23:45:35.822Z,-25.7
2022-08-18T23:47:37.099Z,-25.7
2022-08-18T23:49:38.478Z,-25.8
2022-08-18T23:51:40.289Z,-25.7
2022-08-18T23:53:41.443Z,-25.6
2022-08-18T23:55:42.711Z,-25.6
2022-08-18T23:57:43.615Z,-25.7
2022-08-18T23:59:45.404Z,-25.7
